Time;durP1;ratioP1;P1;durP2;ratioP2;P2;SDS_P1;SDS_P2;PMS_P1;PMS_P2;Temp;Humidity;BMP_temperature;BMP_pressure;BME280_temperature;BME280_humidity;BME280_pressure;Samples;Min_cycle;Max_cycle;Signal;HPM_P1;HPM_P2
2023/09/28 00:02:58;;;;;;;;;;;22.10;99.90;;;;;;5093215;28;19966;-69
2023/09/28 00:05:25;;;;;;;;;;;22.00;99.90;;;;;;5092846;28;19918;-67
2023/09/28 00:07:52;;;;;;;;;;;22.10;99.90;;;;;;5092921;28;19957;-67
2023/09/28 00:10:18;;;;;;;;;;;22.10;99.90;;;;;;5093147;28;19909;-69
2023/09/28 00:12:46;;;;;;;;;;;22.20;99.90;;;;;;5093140;28;19948;-69
2023/09/28 00:15:13;;;;;;;;;;;22.00;99.90;;;;;;5092838;28;19962;-69
2023/09/28 00:17:40;;;;;;;;;;;22.00;99.90;;;;;;5092636;28;19915;-68
2023/09/28 00:20:17;;;;;;;;;;;21.90;99.90;;;;;;5092685;28;19908;-68
2023/09/28 00:22:54;;;;;;;;;;;21.90;99.90;;;;;;5092600;28;19915;-69
2023/09/28 00:25:22;;;;;;;;;;;21.90;99.90;;;;;;5091415;28;19952;-68
2023/09/28 00:27:50;;;;;;;;;;;21.80;99.90;;;;;;5092710;28;19912;-68
2023/09/28 00:30:20;;;;;;;;;;;21.70;99.90;;;;;;5092795;28;20318;-67
2023/09/28 00:32:47;;;;;;;;;;;21.80;99.90;;;;;;5092775;28;19908;-68
2023/09/28 00:35:14;;;;;;;;;;;21.90;99.90;;;;;;5092493;28;20027;-68
2023/09/28 00:37:41;;;;;;;;;;;21.90;99.90;;;;;;5092687;28;19908;-68
2023/09/28 00:40:31;;;;;;;;;;;22.10;99.90;;;;;;5092661;28;19999;-68
2023/09/28 00:42:56;;;;;;;;;;;22.10;99.90;;;;;;5092609;28;19909;-68
2023/09/28 00:45:23;;;;;;;;;;;22.10;99.90;;;;;;5092900;28;19935;-68
2023/09/28 00:48:11;;;;;;;;;;;22.20;99.90;;;;;;5092353;28;19923;-68
2023/09/28 00:50:37;;;;;;;;;;;22.00;99.90;;;;;;5092216;28;19916;-68
2023/09/28 00:53:07;;;;;;;;;;;21.80;99.90;;;;;;5092474;28;19923;-68
2023/09/28 00:55:36;;;;;;;;;;;21.80;99.90;;;;;;5092746;28;19944;-69
2023/09/28 00:58:05;;;;;;;;;;;21.80;99.90;;;;;;5092653;28;20008;-69
2023/09/28 01:00:33;;;;;;;;;;;21.80;99.90;;;;;;5092347;28;19961;-67
2023/09/28 01:03:02;;;;;;;;;;;21.70;99.90;;;;;;5092377;28;19938;-68
2023/09/28 01:05:40;;;;;;;;;;;21.70;99.90;;;;;;5092360;28;19973;-67
2023/09/28 01:08:12;;;;;;;;;;;21.60;99.90;;;;;;5092321;28;19908;-70
2023/09/28 01:10:42;;;;;;;;;;;21.50;99.90;;;;;;5092235;28;20359;-70
2023/09/28 01:13:12;;;;;;;;;;;21.40;99.90;;;;;;5092277;28;19915;-68
2023/09/28 01:15:39;;;;;;;;;;;21.40;99.90;;;;;;5092234;28;19904;-70
2023/09/28 01:18:09;;;;;;;;;;;21.30;99.90;;;;;;5092131;28;19915;-70
2023/09/28 01:20:37;;;;;;;;;;;21.20;99.90;;;;;;5092371;28;19962;-69
2023/09/28 01:23:04;;;;;;;;;;;21.40;99.90;;;;;;5092363;28;19954;-70
2023/09/28 01:25:31;;;;;;;;;;;21.40;99.90;;;;;;5092562;28;19940;-68
2023/09/28 01:27:58;;;;;;;;;;;21.50;99.90;;;;;;5095901;28;20357;-69
2023/09/28 01:30:25;;;;;;;;;;;21.60;99.90;;;;;;5096081;28;19915;-69
2023/09/28 01:32:53;;;;;;;;;;;21.70;99.90;;;;;;5096106;28;20254;-68
2023/09/28 01:35:20;;;;;;;;;;;21.90;99.90;;;;;;5096096;28;19991;-69
2023/09/28 01:37:50;;;;;;;;;;;22.10;99.90;;;;;;5095896;28;19912;-68
2023/09/28 01:40:17;;;;;;;;;;;22.20;99.90;;;;;;5094449;28;20183;-70
2023/09/28 01:42:43;;;;;;;;;;;22.40;99.90;;;;;;5095885;28;20266;-68
2023/09/28 01:45:11;;;;;;;;;;;22.40;99.90;;;;;;5095851;28;19908;-69
2023/09/28 01:47:38;;;;;;;;;;;22.30;99.90;;;;;;5095599;28;19908;-69
2023/09/28 01:50:06;;;;;;;;;;;22.10;99.90;;;;;;5095512;28;19916;-69
2023/09/28 01:52:33;;;;;;;;;;;22.00;99.90;;;;;;5095612;28;19908;-68
2023/09/28 01:55:00;;;;;;;;;;;21.90;99.90;;;;;;5095622;28;20275;-69
2023/09/28 01:57:27;;;;;;;;;;;21.70;99.90;;;;;;5095707;28;19920;-68
2023/09/28 01:59:53;;;;;;;;;;;21.70;99.90;;;;;;5094140;28;20384;-69
2023/09/28 02:02:21;;;;;;;;;;;21.50;99.90;;;;;;5095491;28;20276;-70
2023/09/28 02:04:47;;;;;;;;;;;21.50;99.90;;;;;;5095258;28;19908;-68
2023/09/28 02:07:14;;;;;;;;;;;21.40;99.90;;;;;;5094929;28;19961;-70
2023/09/28 02:09:41;;;;;;;;;;;21.30;99.90;;;;;;5095011;28;19908;-70
2023/09/28 02:12:07;;;;;;;;;;;21.40;99.90;;;;;;5095223;28;20023;-68
2023/09/28 02:14:34;;;;;;;;;;;21.60;99.90;;;;;;5095260;28;20006;-69
2023/09/28 02:17:01;;;;;;;;;;;21.80;99.90;;;;;;5095546;28;20261;-69
2023/09/28 02:19:27;;;;;;;;;;;22.00;99.90;;;;;;5095073;28;19916;-69
2023/09/28 02:21:54;;;;;;;;;;;22.20;99.90;;;;;;5094829;28;19908;-69
2023/09/28 02:24:21;;;;;;;;;;;22.20;99.90;;;;;;5094725;28;19935;-68
2023/09/28 02:26:48;;;;;;;;;;;22.40;99.90;;;;;;5081266;28;19954;-68
2023/09/28 02:29:14;;;;;;;;;;;22.60;99.90;;;;;;5074217;28;19958;-69
2023/09/28 02:31:44;;;;;;;;;;;23.10;99.90;;;;;;5073718;28;19991;-69
2023/09/28 02:34:11;;;;;;;;;;;23.60;98.90;;;;;;5074343;28;19908;-69
2023/09/28 02:36:38;;;;;;;;;;;24.30;98.30;;;;;;5073710;28;19916;-68
2023/09/28 02:39:07;;;;;;;;;;;24.80;96.40;;;;;;5073895;28;20300;-70
2023/09/28 02:41:35;;;;;;;;;;;24.90;95.50;;;;;;5074429;28;20263;-68
2023/09/28 02:44:02;;;;;;;;;;;24.90;96.10;;;;;;5074361;28;19913;-69
2023/09/28 02:46:29;;;;;;;;;;;24.80;95.70;;;;;;5074283;28;20407;-69
2023/09/28 02:48:56;;;;;;;;;;;24.60;95.20;;;;;;5074224;28;19927;-72
2023/09/28 02:51:22;;;;;;;;;;;24.40;95.50;;;;;;5072946;28;19908;-68
2023/09/28 02:53:49;;;;;;;;;;;24.00;95.00;;;;;;5074215;28;19908;-69
2023/09/28 02:56:17;;;;;;;;;;;23.70;96.80;;;;;;5074052;28;19909;-68
2023/09/28 02:58:46;;;;;;;;;;;23.70;96.60;;;;;;5073985;28;19908;-69
2023/09/28 03:01:13;;;;;;;;;;;23.70;97.20;;;;;;5074007;28;20391;-69
2023/09/28 03:03:40;;;;;;;;;;;23.50;97.50;;;;;;5074069;28;20050;-69
2023/09/28 03:06:06;;;;;;;;;;;23.50;96.80;;;;;;5073423;28;19924;-69
2023/09/28 03:08:33;;;;;;;;;;;23.60;96.80;;;;;;5073664;28;20007;-68
2023/09/28 03:11:00;;;;;;;;;;;23.70;97.50;;;;;;5073855;28;19908;-69
2023/09/28 03:13:26;;;;;;;;;;;23.60;96.20;;;;;;5073952;28;20408;-69
2023/09/28 03:15:54;;;;;;;;;;;23.60;96.30;;;;;;5073442;28;19912;-69
2023/09/28 03:18:21;;;;;;;;;;;23.70;97.30;;;;;;5072372;28;20283;-67
2023/09/28 03:20:48;;;;;;;;;;;24.20;96.00;;;;;;5073897;28;19916;-68
2023/09/28 03:23:15;;;;;;;;;;;24.30;95.70;;;;;;5073688;28;19995;-69
2023/09/28 03:25:42;;;;;;;;;;;24.50;95.00;;;;;;5073528;28;19921;-69
2023/09/28 03:28:09;;;;;;;;;;;24.90;96.00;;;;;;5073438;28;19908;-67
2023/09/28 03:30:36;;;;;;;;;;;25.50;93.40;;;;;;5073477;28;19990;-68
2023/09/28 03:33:03;;;;;;;;;;;25.50;93.30;;;;;;5073452;28;19931;-69
2023/09/28 03:35:29;;;;;;;;;;;25.50;93.50;;;;;;5073678;28;19920;-67
2023/09/28 03:37:59;;;;;;;;;;;25.50;93.20;;;;;;5073396;28;19931;-67
2023/09/28 03:40:33;;;;;;;;;;;25.40;93.50;;;;;;5073387;28;19909;-68
2023/09/28 03:43:03;;;;;;;;;;;25.30;93.70;;;;;;5073428;28;20266;-68
2023/09/28 03:45:29;;;;;;;;;;;25.30;93.80;;;;;;5073129;28;19943;-70
2023/09/28 03:47:57;;;;;;;;;;;25.60;93.50;;;;;;5073196;28;19967;-68
2023/09/28 03:50:23;;;;;;;;;;;25.90;92.90;;;;;;5072867;28;20004;-67
2023/09/28 03:52:51;;;;;;;;;;;26.00;92.10;;;;;;5073282;28;19916;-69
2023/09/28 03:55:19;;;;;;;;;;;26.30;92.00;;;;;;5071785;28;19908;-70
2023/09/28 03:57:46;;;;;;;;;;;26.90;91.60;;;;;;5072866;28;19908;-68
2023/09/28 04:00:14;;;;;;;;;;;27.50;91.20;;;;;;5072915;28;19947;-70
2023/09/28 04:02:41;;;;;;;;;;;27.40;91.30;;;;;;5072937;28;19908;-70
2023/09/28 04:05:09;;;;;;;;;;;28.60;89.40;;;;;;5102913;28;20377;-68
2023/09/28 04:07:36;;;;;;;;;;;29.10;87.10;;;;;;5113210;28;19907;-69
2023/09/28 04:10:04;;;;;;;;;;;29.00;85.50;;;;;;5113576;28;19957;-70
2023/09/28 04:12:31;;;;;;;;;;;30.00;86.90;;;;;;5113992;28;20271;-68
2023/09/28 04:14:58;;;;;;;;;;;31.30;82.40;;;;;;5113642;28;19934;-69
2023/09/28 04:17:25;;;;;;;;;;;31.80;77.50;;;;;;5113569;28;19966;-71
2023/09/28 04:19:55;;;;;;;;;;;32.20;80.20;;;;;;5113270;28;20484;-68
2023/09/28 04:22:21;;;;;;;;;;;32.90;75.90;;;;;;5113418;28;19931;-70
2023/09/28 04:24:48;;;;;;;;;;;33.50;75.90;;;;;;5113184;28;19912;-66
2023/09/28 04:27:16;;;;;;;;;;;33.70;71.20;;;;;;5113200;28;19958;-69
2023/09/28 04:29:43;;;;;;;;;;;33.40;73.50;;;;;;5113105;28;19908;-68
2023/09/28 04:32:10;;;;;;;;;;;34.70;72.10;;;;;;5113145;28;20314;-70
2023/09/28 04:34:36;;;;;;;;;;;35.40;71.00;;;;;;5113327;28;19994;-68
2023/09/28 04:37:04;;;;;;;;;;;35.50;68.20;;;;;;5111905;28;20280;-68
2023/09/28 04:39:31;;;;;;;;;;;34.80;67.20;;;;;;5113143;28;19915;-68
2023/09/28 04:41:58;;;;;;;;;;;33.90;69.50;;;;;;5113353;28;19960;-70
2023/09/28 04:44:25;;;;;;;;;;;33.60;70.60;;;;;;5113171;28;20006;-69
2023/09/28 04:46:51;;;;;;;;;;;33.80;69.30;;;;;;5112783;28;19916;-69
2023/09/28 04:49:18;;;;;;;;;;;33.80;69.30;;;;;;5112859;28;19927;-68
2023/09/28 04:51:45;;;;;;;;;;;33.00;70.40;;;;;;5112929;28;19933;-67
2023/09/28 04:54:12;;;;;;;;;;;32.50;72.80;;;;;;5113177;28;19956;-69
2023/09/28 04:56:39;;;;;;;;;;;32.40;69.90;;;;;;5113257;28;19953;-69
2023/09/28 04:59:08;;;;;;;;;;;31.40;72.30;;;;;;5113209;28;20272;-69
2023/09/28 05:01:35;;;;;;;;;;;30.40;74.70;;;;;;5115515;28;19908;-69
2023/09/28 05:04:02;;;;;;;;;;;29.40;75.90;;;;;;5117138;27;19922;-69
2023/09/28 05:06:29;;;;;;;;;;;28.30;78.00;;;;;;5116948;28;19919;-69
2023/09/28 05:08:56;;;;;;;;;;;27.50;80.30;;;;;;5117009;28;20364;-68
2023/09/28 05:11:23;;;;;;;;;;;27.60;82.00;;;;;;5116898;28;20288;-67
2023/09/28 05:13:51;;;;;;;;;;;29.50;78.60;;;;;;5116882;28;20002;-67
2023/09/28 05:16:18;;;;;;;;;;;31.60;75.50;;;;;;5116524;27;19908;-68
2023/09/28 05:18:45;;;;;;;;;;;33.30;72.60;;;;;;5116522;28;20007;-68
2023/09/28 05:21:12;;;;;;;;;;;34.20;71.00;;;;;;5116752;28;20006;-70
2023/09/28 05:23:39;;;;;;;;;;;35.90;66.80;;;;;;5116674;28;20020;-71
2023/09/28 05:26:06;;;;;;;;;;;35.40;68.00;;;;;;5116574;28;19916;-69
2023/09/28 05:28:33;;;;;;;;;;;34.80;69.40;;;;;;5116774;28;19981;-68
2023/09/28 05:31:00;;;;;;;;;;;34.70;67.70;;;;;;5116494;28;20330;-70
2023/09/28 05:33:26;;;;;;;;;;;35.70;65.60;;;;;;5116474;28;20380;-70
2023/09/28 05:35:53;;;;;;;;;;;36.10;66.60;;;;;;5116423;27;19915;-70
2023/09/28 05:38:20;;;;;;;;;;;33.70;66.00;;;;;;5116462;28;19955;-67
2023/09/28 05:40:47;;;;;;;;;;;33.60;67.90;;;;;;5116292;28;20401;-71
2023/09/28 05:43:14;;;;;;;;;;;33.70;67.60;;;;;;5116208;28;20299;-71
2023/09/28 05:45:40;;;;;;;;;;;34.20;68.80;;;;;;5115130;28;20317;-70
2023/09/28 05:48:07;;;;;;;;;;;34.40;67.60;;;;;;5116187;28;19919;-69
2023/09/28 05:50:34;;;;;;;;;;;34.20;66.20;;;;;;5115947;28;19977;-68
2023/09/28 05:53:01;;;;;;;;;;;34.90;67.30;;;;;;5116237;28;19915;-69
2023/09/28 05:55:27;;;;;;;;;;;33.90;67.70;;;;;;5116177;28;19908;-69
2023/09/28 05:57:54;;;;;;;;;;;34.30;68.40;;;;;;5116014;28;19908;-70
2023/09/28 06:00:21;;;;;;;;;;;33.70;66.40;;;;;;5115786;28;19966;-69
2023/09/28 06:02:48;;;;;;;;;;;32.80;68.70;;;;;;5115984;28;20044;-69
2023/09/28 06:05:14;;;;;;;;;;;32.60;68.30;;;;;;5114916;28;19908;-69
2023/09/28 06:07:41;;;;;;;;;;;31.40;69.50;;;;;;5115909;28;19912;-68
2023/09/28 06:10:08;;;;;;;;;;;32.30;69.00;;;;;;5115965;28;19977;-70
2023/09/28 06:12:35;;;;;;;;;;;33.50;68.30;;;;;;5115701;28;19912;-69
2023/09/28 06:15:04;;;;;;;;;;;33.70;66.10;;;;;;5115497;28;19961;-69
2023/09/28 06:17:30;;;;;;;;;;;33.30;69.20;;;;;;5115880;28;19907;-69
2023/09/28 06:19:57;;;;;;;;;;;33.80;68.20;;;;;;5115578;28;19908;-69
2023/09/28 06:22:24;;;;;;;;;;;35.20;66.40;;;;;;5115541;28;20443;-68
2023/09/28 06:24:50;;;;;;;;;;;34.70;66.20;;;;;;5115240;28;19953;-68
2023/09/28 06:27:17;;;;;;;;;;;33.70;67.60;;;;;;5115390;28;19923;-69
2023/09/28 06:29:44;;;;;;;;;;;34.40;67.50;;;;;;5115384;28;20257;-70
2023/09/28 06:32:11;;;;;;;;;;;34.50;65.30;;;;;;5115324;28;20422;-67
2023/09/28 06:34:37;;;;;;;;;;;34.80;66.00;;;;;;5115540;28;19957;-68
2023/09/28 06:37:04;;;;;;;;;;;35.20;65.70;;;;;;5115058;28;20395;-69
2023/09/28 06:39:31;;;;;;;;;;;34.70;65.90;;;;;;5115229;28;19914;-68
2023/09/28 06:41:59;;;;;;;;;;;34.90;66.50;;;;;;5115168;28;19908;-68
2023/09/28 06:44:26;;;;;;;;;;;33.90;65.90;;;;;;5115069;28;19908;-67
2023/09/28 06:46:53;;;;;;;;;;;33.10;68.10;;;;;;5114975;28;19943;-69
2023/09/28 06:49:20;;;;;;;;;;;32.90;67.80;;;;;;5114518;28;20016;-68
2023/09/28 06:51:48;;;;;;;;;;;33.30;68.00;;;;;;5113932;28;20321;-68
2023/09/28 06:54:16;;;;;;;;;;;33.50;67.30;;;;;;5115121;28;19995;-68
2023/09/28 06:56:43;;;;;;;;;;;32.40;68.20;;;;;;5114963;28;20316;-70
2023/09/28 06:59:09;;;;;;;;;;;30.80;70.00;;;;;;5114537;28;19994;-71
2023/09/28 07:01:36;;;;;;;;;;;29.40;72.70;;;;;;5114758;28;19908;-66
2023/09/28 07:04:03;;;;;;;;;;;28.50;75.20;;;;;;5113424;28;19955;-68
2023/09/28 07:06:29;;;;;;;;;;;27.20;77.30;;;;;;5114603;28;19919;-68
2023/09/28 07:08:57;;;;;;;;;;;26.10;80.30;;;;;;5114663;28;20352;-70
2023/09/28 07:11:24;;;;;;;;;;;25.40;82.90;;;;;;5114570;28;19908;-67
2023/09/28 07:13:50;;;;;;;;;;;24.70;84.30;;;;;;5114585;28;19994;-70
2023/09/28 07:16:17;;;;;;;;;;;24.30;86.50;;;;;;5114641;28;19907;-68
2023/09/28 07:18:44;;;;;;;;;;;23.90;88.50;;;;;;5114510;28;19915;-69
2023/09/28 07:21:10;;;;;;;;;;;23.40;90.10;;;;;;5114382;28;20317;-67
2023/09/28 07:23:39;;;;;;;;;;;23.20;90.50;;;;;;5113706;28;20045;-69
2023/09/28 07:26:18;;;;;;;;;;;22.70;91.40;;;;;;5112920;28;19958;-67
2023/09/28 07:28:45;;;;;;;;;;;22.40;92.00;;;;;;5114273;28;19912;-67
2023/09/28 07:31:12;;;;;;;;;;;22.10;93.00;;;;;;5114244;28;19919;-69
2023/09/28 07:33:40;;;;;;;;;;;21.80;93.80;;;;;;5114291;28;19915;-69
2023/09/28 07:36:07;;;;;;;;;;;21.60;94.70;;;;;;5112646;28;20373;-67
2023/09/28 07:38:33;;;;;;;;;;;21.30;95.70;;;;;;5113877;28;19907;-69
2023/09/28 07:41:01;;;;;;;;;;;21.10;97.00;;;;;;5114044;28;19915;-69
2023/09/28 07:43:29;;;;;;;;;;;21.00;97.90;;;;;;5113934;28;19952;-66
2023/09/28 07:45:56;;;;;;;;;;;20.90;98.70;;;;;;5113840;28;20225;-67
2023/09/28 07:48:23;;;;;;;;;;;20.80;99.20;;;;;;5113468;28;20012;-68
2023/09/28 07:50:50;;;;;;;;;;;20.70;99.60;;;;;;5112845;28;20318;-68
2023/09/28 07:53:17;;;;;;;;;;;20.60;99.90;;;;;;5113069;28;19961;-68
2023/09/28 07:55:44;;;;;;;;;;;20.50;99.90;;;;;;5112710;28;19915;-68
2023/09/28 07:58:11;;;;;;;;;;;20.40;99.90;;;;;;5112500;28;19908;-68
2023/09/28 08:00:38;;;;;;;;;;;20.40;99.90;;;;;;5112662;28;19995;-70
2023/09/28 08:03:05;;;;;;;;;;;20.20;99.90;;;;;;5112722;28;19961;-70
2023/09/28 08:05:31;;;;;;;;;;;20.10;99.90;;;;;;5112633;28;19911;-68
2023/09/28 08:07:58;;;;;;;;;;;20.10;99.90;;;;;;5112877;28;19970;-67
2023/09/28 08:10:25;;;;;;;;;;;20.00;99.90;;;;;;5112557;28;19912;-69
2023/09/28 08:12:51;;;;;;;;;;;20.00;99.90;;;;;;5112969;28;19914;-67
2023/09/28 08:15:18;;;;;;;;;;;19.90;99.90;;;;;;5112646;28;19960;-68
2023/09/28 08:17:47;;;;;;;;;;;19.80;99.90;;;;;;5112513;28;19935;-70
2023/09/28 08:20:15;;;;;;;;;;;19.70;99.90;;;;;;5112489;28;19931;-69
2023/09/28 08:22:42;;;;;;;;;;;19.70;99.90;;;;;;5112856;28;20018;-68
2023/09/28 08:25:08;;;;;;;;;;;19.60;99.90;;;;;;5112660;28;20360;-67
2023/09/28 08:27:35;;;;;;;;;;;19.50;99.90;;;;;;5112316;28;20380;-67
2023/09/28 08:30:03;;;;;;;;;;;19.50;99.90;;;;;;5112195;28;19912;-70
2023/09/28 08:32:31;;;;;;;;;;;19.30;99.90;;;;;;5112394;28;19908;-67
2023/09/28 08:34:58;;;;;;;;;;;19.20;99.90;;;;;;5111491;28;19920;-70
2023/09/28 08:37:24;;;;;;;;;;;19.20;99.90;;;;;;5112308;28;20382;-67
2023/09/28 08:39:51;;;;;;;;;;;19.10;99.90;;;;;;5112412;28;19908;-69
2023/09/28 08:42:23;;;;;;;;;;;19.10;99.90;;;;;;5112572;28;19908;-71
2023/09/28 08:44:51;;;;;;;;;;;19.00;99.90;;;;;;5112369;28;19908;-69
2023/09/28 08:47:19;;;;;;;;;;;19.00;99.90;;;;;;5112183;28;19916;-70
2023/09/28 08:49:50;;;;;;;;;;;19.00;99.90;;;;;;4997834;28;3233992;-67
2023/09/28 08:52:17;;;;;;;;;;;18.90;99.90;;;;;;5113205;28;20261;-68
2023/09/28 08:54:44;;;;;;;;;;;18.80;99.90;;;;;;5113177;28;19993;-68
2023/09/28 08:57:11;;;;;;;;;;;18.80;99.90;;;;;;5113002;28;19907;-69
2023/09/28 08:59:37;;;;;;;;;;;18.80;99.90;;;;;;5112883;28;20425;-71
2023/09/28 09:02:05;;;;;;;;;;;18.80;99.90;;;;;;5112999;28;19914;-69
2023/09/28 09:04:34;;;;;;;;;;;18.80;99.90;;;;;;5112986;28;20287;-70
2023/09/28 09:07:04;;;;;;;;;;;18.70;99.90;;;;;;5112876;28;20010;-68
2023/09/28 09:09:40;;;;;;;;;;;18.70;99.90;;;;;;5112750;28;20574;-70
2023/09/28 09:12:09;;;;;;;;;;;18.60;99.90;;;;;;5112857;28;19915;-68
2023/09/28 09:14:36;;;;;;;;;;;18.60;99.90;;;;;;5112899;28;19908;-67
2023/09/28 09:17:03;;;;;;;;;;;18.60;99.90;;;;;;5112695;28;19957;-68
2023/09/28 09:19:30;;;;;;;;;;;18.60;99.90;;;;;;5112700;28;20288;-69
2023/09/28 09:21:57;;;;;;;;;;;18.60;99.90;;;;;;5113026;28;19919;-71
2023/09/28 09:24:24;;;;;;;;;;;18.50;99.90;;;;;;5112685;28;19940;-71
2023/09/28 09:26:55;;;;;;;;;;;18.60;99.90;;;;;;5112561;28;19916;-69
2023/09/28 09:29:23;;;;;;;;;;;18.50;99.90;;;;;;5112621;28;19951;-69
2023/09/28 09:31:51;;;;;;;;;;;18.50;99.90;;;;;;5112667;28;20317;-71
2023/09/28 09:34:18;;;;;;;;;;;18.40;99.90;;;;;;5112705;28;19994;-70
2023/09/28 09:36:52;;;;;;;;;;;18.40;99.90;;;;;;5112609;28;19908;-71
2023/09/28 09:39:22;;;;;;;;;;;18.40;99.90;;;;;;5112687;28;20411;-70
2023/09/28 09:41:49;;;;;;;;;;;18.40;99.90;;;;;;5103345;28;20006;-70
2023/09/28 09:44:18;;;;;;;;;;;18.40;99.90;;;;;;5092522;28;19909;-70
2023/09/28 09:46:50;;;;;;;;;;;18.40;99.90;;;;;;5106386;28;19941;-69
2023/09/28 09:49:18;;;;;;;;;;;18.40;99.90;;;;;;5098468;28;19920;-68
2023/09/28 09:51:45;;;;;;;;;;;18.30;99.90;;;;;;5107497;28;19912;-70
2023/09/28 09:54:13;;;;;;;;;;;18.30;99.90;;;;;;5106045;28;19908;-70
2023/09/28 09:56:44;;;;;;;;;;;18.30;99.90;;;;;;5108262;28;20403;-68
2023/09/28 09:59:17;;;;;;;;;;;18.30;99.90;;;;;;5098282;28;19917;-68
2023/09/28 10:01:48;;;;;;;;;;;18.20;99.90;;;;;;5107275;27;19908;-69
2023/09/28 10:04:16;;;;;;;;;;;18.10;99.90;;;;;;5105325;28;19909;-69
2023/09/28 10:06:45;;;;;;;;;;;18.20;99.90;;;;;;5108585;28;19916;-67
2023/09/28 10:09:13;;;;;;;;;;;18.10;99.90;;;;;;5098322;28;19930;-70
2023/09/28 10:11:40;;;;;;;;;;;18.10;99.90;;;;;;5105853;28;19907;-71
2023/09/28 10:14:08;;;;;;;;;;;18.00;99.90;;;;;;5106529;28;19958;-71
2023/09/28 10:16:38;;;;;;;;;;;18.00;99.90;;;;;;5107216;28;19911;-70
2023/09/28 10:19:05;;;;;;;;;;;18.00;99.90;;;;;;5098661;28;19912;-69
2023/09/28 10:21:36;;;;;;;;;;;18.00;99.90;;;;;;5089187;28;19908;-70
2023/09/28 10:24:09;;;;;;;;;;;17.90;99.90;;;;;;5106732;28;20365;-70
2023/09/28 10:26:38;;;;;;;;;;;18.00;99.90;;;;;;5107556;28;20376;-72
2023/09/28 10:29:09;;;;;;;;;;;18.00;99.90;;;;;;5115065;28;19912;-69
2023/09/28 10:31:40;;;;;;;;;;;17.90;99.90;;;;;;5108705;28;19933;-70
2023/09/28 10:34:07;;;;;;;;;;;18.00;99.90;;;;;;5094343;28;19908;-69
2023/09/28 10:36:38;;;;;;;;;;;17.90;99.90;;;;;;5094973;28;19915;-71
2023/09/28 10:39:15;;;;;;;;;;;17.90;99.90;;;;;;5094427;28;20330;-68
2023/09/28 10:41:46;;;;;;;;;;;17.90;99.90;;;;;;5094478;28;20271;-70
2023/09/28 10:44:16;;;;;;;;;;;17.80;99.90;;;;;;5094639;28;19912;-69
2023/09/28 10:46:45;;;;;;;;;;;17.80;99.90;;;;;;5094697;28;19978;-68
2023/09/28 10:49:15;;;;;;;;;;;17.80;99.90;;;;;;5094286;28;20426;-68
2023/09/28 10:51:42;;;;;;;;;;;17.70;99.90;;;;;;5094521;28;19962;-67
2023/09/28 10:54:10;;;;;;;;;;;17.60;99.90;;;;;;5094558;28;19908;-67
2023/09/28 10:56:37;;;;;;;;;;;17.60;99.90;;;;;;5094311;28;20005;-68
2023/09/28 10:59:06;;;;;;;;;;;17.60;99.90;;;;;;5093185;28;19950;-68
2023/09/28 11:01:33;;;;;;;;;;;17.60;99.90;;;;;;5094316;28;19914;-68
2023/09/28 11:03:59;;;;;;;;;;;17.60;99.90;;;;;;5094302;28;19908;-68
2023/09/28 11:06:26;;;;;;;;;;;17.50;99.90;;;;;;5094223;28;19916;-68
2023/09/28 11:08:53;;;;;;;;;;;17.50;99.90;;;;;;5094336;28;19914;-70
2023/09/28 11:11:21;;;;;;;;;;;17.60;99.90;;;;;;5094248;28;19935;-68
2023/09/28 11:13:48;;;;;;;;;;;17.60;99.90;;;;;;5094079;28;19908;-68
2023/09/28 11:16:18;;;;;;;;;;;17.60;99.90;;;;;;5093037;28;20352;-69
2023/09/28 11:18:46;;;;;;;;;;;17.50;99.90;;;;;;5093944;28;20364;-68
2023/09/28 11:21:13;;;;;;;;;;;17.60;99.90;;;;;;5093908;28;19909;-67
2023/09/28 11:23:43;;;;;;;;;;;17.50;99.90;;;;;;5094041;28;20003;-68
2023/09/28 11:26:14;;;;;;;;;;;17.50;99.90;;;;;;5093872;28;19912;-67
2023/09/28 11:28:41;;;;;;;;;;;17.50;99.90;;;;;;5093553;28;20392;-68
2023/09/28 11:31:12;;;;;;;;;;;17.50;99.90;;;;;;5093894;28;19908;-70
2023/09/28 11:33:39;;;;;;;;;;;17.50;99.90;;;;;;5093951;28;19912;-67
2023/09/28 11:36:07;;;;;;;;;;;17.50;99.90;;;;;;5093883;28;19908;-71
2023/09/28 11:38:33;;;;;;;;;;;17.50;99.90;;;;;;5093998;28;20002;-69
2023/09/28 11:41:02;;;;;;;;;;;17.50;99.90;;;;;;5093699;28;19916;-68
2023/09/28 11:43:32;;;;;;;;;;;17.50;99.90;;;;;;5093624;28;20361;-68
2023/09/28 11:45:59;;;;;;;;;;;17.50;99.90;;;;;;5093689;28;19912;-71
2023/09/28 11:48:26;;;;;;;;;;;17.50;99.90;;;;;;5093422;28;20385;-68
2023/09/28 11:50:53;;;;;;;;;;;17.40;99.90;;;;;;5092193;28;20366;-70
2023/09/28 11:53:20;;;;;;;;;;;17.40;99.90;;;;;;5093582;28;19932;-72
2023/09/28 11:55:49;;;;;;;;;;;17.40;99.90;;;;;;5093326;28;19908;-68
2023/09/28 11:58:22;;;;;;;;;;;17.30;99.90;;;;;;5093290;28;19908;-69
2023/09/28 12:00:49;;;;;;;;;;;17.30;99.90;;;;;;5092990;28;19930;-69
2023/09/28 12:03:16;;;;;;;;;;;17.30;99.90;;;;;;5093044;28;19908;-70
2023/09/28 12:05:42;;;;;;;;;;;17.20;99.90;;;;;;5093031;28;19957;-69
2023/09/28 12:08:10;;;;;;;;;;;17.20;99.90;;;;;;5093249;28;20393;-69
2023/09/28 12:10:37;;;;;;;;;;;17.10;99.90;;;;;;5092964;28;19947;-70
2023/09/28 12:13:04;;;;;;;;;;;17.10;99.90;;;;;;5093200;28;19951;-68
2023/09/28 12:15:30;;;;;;;;;;;17.10;99.90;;;;;;5092814;28;19912;-72
2023/09/28 12:17:57;;;;;;;;;;;17.10;99.90;;;;;;5093148;28;19919;-72
2023/09/28 12:20:24;;;;;;;;;;;17.00;99.90;;;;;;5092990;28;19916;-69
2023/09/28 12:22:52;;;;;;;;;;;17.00;99.90;;;;;;5092890;28;19916;-70
2023/09/28 12:25:18;;;;;;;;;;;17.00;99.90;;;;;;5092947;28;19916;-72
2023/09/28 12:27:46;;;;;;;;;;;17.00;99.90;;;;;;5092722;28;19961;-71
2023/09/28 12:30:18;;;;;;;;;;;16.90;99.90;;;;;;5092497;28;19908;-68
2023/09/28 12:32:45;;;;;;;;;;;17.00;99.90;;;;;;5093248;28;19916;-68
2023/09/28 12:35:12;;;;;;;;;;;16.90;99.90;;;;;;5092982;28;19912;-69
2023/09/28 12:37:39;;;;;;;;;;;16.90;99.90;;;;;;5092653;28;19908;-68
2023/09/28 12:40:11;;;;;;;;;;;16.90;99.90;;;;;;5092570;28;19908;-68
2023/09/28 12:42:41;;;;;;;;;;;16.80;99.90;;;;;;5091542;28;19912;-70
2023/09/28 12:45:08;;;;;;;;;;;16.80;99.90;;;;;;5092993;28;19915;-71
2023/09/28 12:47:35;;;;;;;;;;;16.80;99.90;;;;;;5092368;28;19920;-69
2023/09/28 12:50:05;;;;;;;;;;;16.80;99.90;;;;;;5092594;28;19919;-70
2023/09/28 12:52:31;;;;;;;;;;;16.70;99.90;;;;;;5093194;28;19920;-69
2023/09/28 12:54:59;;;;;;;;;;;16.70;99.90;;;;;;5092723;28;19908;-72
2023/09/28 12:57:25;;;;;;;;;;;16.70;99.90;;;;;;5092505;28;19915;-70
2023/09/28 12:59:52;;;;;;;;;;;16.70;99.90;;;;;;5092535;28;19919;-72
2023/09/28 13:02:20;;;;;;;;;;;16.70;99.90;;;;;;5092373;28;19908;-72
2023/09/28 13:04:46;;;;;;;;;;;16.70;99.90;;;;;;5092383;28;19907;-71
2023/09/28 13:07:14;;;;;;;;;;;16.70;99.90;;;;;;5092329;28;20307;-70
2023/09/28 13:09:42;;;;;;;;;;;16.70;99.90;;;;;;5092459;28;19936;-69
2023/09/28 13:12:08;;;;;;;;;;;16.70;99.90;;;;;;5092940;28;19915;-71
2023/09/28 13:14:35;;;;;;;;;;;16.60;99.90;;;;;;5092456;28;19908;-70
2023/09/28 13:17:03;;;;;;;;;;;16.60;99.90;;;;;;5092623;28;19908;-70
2023/09/28 13:19:29;;;;;;;;;;;16.60;99.90;;;;;;5092179;28;19966;-71
2023/09/28 13:21:56;;;;;;;;;;;16.60;99.90;;;;;;5093688;28;20351;-72
2023/09/28 13:24:23;;;;;;;;;;;16.60;99.90;;;;;;5094977;28;19908;-71
2023/09/28 13:26:50;;;;;;;;;;;16.70;99.90;;;;;;5095953;28;20006;-70
2023/09/28 13:29:18;;;;;;;;;;;16.60;99.90;;;;;;5095837;28;19916;-72
2023/09/28 13:31:47;;;;;;;;;;;16.60;99.90;;;;;;5096009;28;19958;-71
2023/09/28 13:34:14;;;;;;;;;;;16.70;99.90;;;;;;5096231;28;19915;-70
2023/09/28 13:36:42;;;;;;;;;;;16.70;99.90;;;;;;5096125;28;19916;-69
2023/09/28 13:39:27;;;;;;;;;;;16.60;99.90;;;;;;5095998;28;19915;-70
2023/09/28 13:41:57;;;;;;;;;;;16.50;99.90;;;;;;5095933;28;19912;-72
2023/09/28 13:44:24;;;;;;;;;;;16.60;99.90;;;;;;5095944;28;19915;-68
2023/09/28 13:46:55;;;;;;;;;;;16.50;99.90;;;;;;5095904;28;19923;-68
2023/09/28 13:49:23;;;;;;;;;;;16.40;99.90;;;;;;5095400;28;19927;-69
2023/09/28 13:51:57;;;;;;;;;;;16.40;99.90;;;;;;5095902;28;20326;-69
2023/09/28 13:54:24;;;;;;;;;;;16.40;99.90;;;;;;5095373;28;20368;-69
2023/09/28 13:56:57;;;;;;;;;;;16.30;99.90;;;;;;5095469;28;19908;-71
2023/09/28 13:59:25;;;;;;;;;;;16.30;99.90;;;;;;5095474;28;19933;-69
2023/09/28 14:01:52;;;;;;;;;;;16.30;99.90;;;;;;5095459;28;19908;-67
2023/09/28 14:04:22;;;;;;;;;;;16.20;99.90;;;;;;5095393;28;19912;-69
2023/09/28 14:06:49;;;;;;;;;;;16.20;99.90;;;;;;5095102;28;19959;-70
2023/09/28 14:09:24;;;;;;;;;;;16.20;99.90;;;;;;5095225;28;19995;-69
2023/09/28 14:11:51;;;;;;;;;;;16.10;99.90;;;;;;5095051;28;20353;-71
2023/09/28 14:14:17;;;;;;;;;;;16.20;99.90;;;;;;5094974;28;19935;-70
2023/09/28 14:16:44;;;;;;;;;;;16.10;99.90;;;;;;5095103;28;20479;-69
2023/09/28 14:19:11;;;;;;;;;;;16.00;99.90;;;;;;5094897;28;19909;-69
2023/09/28 14:21:38;;;;;;;;;;;16.10;99.90;;;;;;5095201;28;19908;-71